Time;durP1;ratioP1;P1;durP2;ratioP2;P2;SDS_P1;SDS_P2;PMS_P1;PMS_P2;Temp;Humidity;BMP_temperature;BMP_pressure;BME280_temperature;BME280_humidity;BME280_pressure;Samples;Min_cycle;Max_cycle;Signal;HPM_P1;HPM_P2
2021/03/18 00:01:54;;;;;;;13.30;3.77;;;;;;;;;;4347443;33;20213;-80
2021/03/18 00:04:20;;;;;;;11.95;3.10;;;;;;;;;;4347724;33;20139;-83
2021/03/18 00:06:46;;;;;;;12.47;2.90;;;;;;;;;;4347442;33;20140;-81
2021/03/18 00:09:13;;;;;;;12.93;3.10;;;;;;;;;;4348304;33;20171;-80
2021/03/18 00:11:39;;;;;;;14.50;3.43;;;;;;;;;;4347771;33;20274;-80
2021/03/18 00:14:04;;;;;;;10.60;3.27;;;;;;;;;;4346917;33;20139;-81
2021/03/18 00:16:30;;;;;;;10.43;2.90;;;;;;;;;;4348212;33;20136;-82
2021/03/18 00:18:55;;;;;;;12.80;2.70;;;;;;;;;;4333223;33;20528;-80
2021/03/18 00:21:21;;;;;;;12.93;3.20;;;;;;;;;;4347009;33;20233;-80
2021/03/18 00:23:46;;;;;;;14.90;3.30;;;;;;;;;;4346653;33;20154;-82
2021/03/18 00:26:12;;;;;;;10.80;3.23;;;;;;;;;;4346378;33;20135;-81
2021/03/18 00:28:37;;;;;;;9.40;2.93;;;;;;;;;;4346927;33;20476;-80
2021/03/18 00:31:03;;;;;;;8.83;2.73;;;;;;;;;;4346963;33;20139;-80
2021/03/18 00:33:28;;;;;;;8.30;2.93;;;;;;;;;;4347302;33;20498;-80
2021/03/18 00:35:54;;;;;;;11.10;2.83;;;;;;;;;;4346474;33;20575;-79
2021/03/18 00:38:19;;;;;;;15.27;3.17;;;;;;;;;;4346923;33;20524;-80
2021/03/18 00:40:47;;;;;;;9.73;3.20;;;;;;;;;;4346371;33;20577;-81
2021/03/18 00:43:13;;;;;;;9.83;2.73;;;;;;;;;;4345585;33;20217;-80
2021/03/18 00:45:40;;;;;;;16.67;3.20;;;;;;;;;;4346733;33;20194;-81
2021/03/18 00:48:06;;;;;;;14.60;3.13;;;;;;;;;;4347310;33;20485;-82
2021/03/18 00:50:42;;;;;;;11.53;3.00;;;;;;;;;;4345043;33;20705;-82
2021/03/18 00:53:08;;;;;;;16.50;3.53;;;;;;;;;;4346780;33;20194;-82
2021/03/18 00:55:34;;;;;;;13.37;3.43;;;;;;;;;;4346127;33;20502;-83
2021/03/18 00:57:59;;;;;;;15.27;3.57;;;;;;;;;;4345592;33;20218;-82
2021/03/18 01:00:24;;;;;;;24.13;3.80;;;;;;;;;;4345867;33;20166;-82
2021/03/18 01:02:50;;;;;;;12.73;3.50;;;;;;;;;;4346364;33;20148;-81
2021/03/18 01:05:18;;;;;;;12.80;3.00;;;;;;;;;;4347473;33;20236;-82
2021/03/18 01:07:43;;;;;;;14.33;3.50;;;;;;;;;;4346139;33;20170;-82
2021/03/18 01:10:09;;;;;;;10.87;3.20;;;;;;;;;;4347002;33;20187;-83
2021/03/18 01:12:35;;;;;;;13.50;3.10;;;;;;;;;;4347205;33;20320;-80
2021/03/18 01:15:00;;;;;;;12.13;2.67;;;;;;;;;;4346210;33;20224;-81
2021/03/18 01:17:25;;;;;;;11.67;3.30;;;;;;;;;;4346758;33;20136;-80
2021/03/18 01:19:50;;;;;;;15.07;3.33;;;;;;;;;;4346104;33;20230;-81
2021/03/18 01:22:15;;;;;;;15.50;3.40;;;;;;;;;;4346481;33;20197;-82
2021/03/18 01:24:40;;;;;;;8.93;3.23;;;;;;;;;;4345571;33;20179;-82
2021/03/18 01:27:06;;;;;;;15.00;3.40;;;;;;;;;;4346019;33;20232;-80
2021/03/18 01:29:31;;;;;;;14.67;3.17;;;;;;;;;;4345909;33;20147;-80
2021/03/18 01:31:56;;;;;;;13.70;4.07;;;;;;;;;;4345498;33;20540;-80
2021/03/18 01:34:22;;;;;;;9.87;3.23;;;;;;;;;;4346595;33;20140;-80
2021/03/18 01:36:47;;;;;;;17.17;3.30;;;;;;;;;;4345569;33;20140;-81
2021/03/18 01:39:12;;;;;;;12.97;3.17;;;;;;;;;;4345627;33;20158;-81
2021/03/18 01:41:37;;;;;;;16.70;3.67;;;;;;;;;;4345506;33;20175;-81
2021/03/18 01:44:03;;;;;;;14.93;3.50;;;;;;;;;;4332661;33;20168;-81
2021/03/18 01:46:29;;;;;;;14.10;3.20;;;;;;;;;;4346459;33;20143;-80
2021/03/18 01:48:54;;;;;;;12.43;3.30;;;;;;;;;;4332142;33;20194;-81
2021/03/18 01:51:20;;;;;;;10.37;3.30;;;;;;;;;;4332146;33;20215;-80
2021/03/18 01:53:45;;;;;;;14.27;4.00;;;;;;;;;;4332953;33;20532;-81
2021/03/18 01:56:11;;;;;;;9.07;2.80;;;;;;;;;;4345415;33;20175;-81
2021/03/18 01:58:36;;;;;;;12.47;3.00;;;;;;;;;;4332100;33;20643;-80
2021/03/18 02:01:05;;;;;;;17.20;3.43;;;;;;;;;;4332037;33;20201;-80
2021/03/18 02:03:30;;;;;;;12.67;3.77;;;;;;;;;;4345477;33;20144;-80
2021/03/18 02:05:55;;;;;;;7.87;2.67;;;;;;;;;;4344869;33;20197;-80
2021/03/18 02:08:21;;;;;;;13.07;3.47;;;;;;;;;;4346084;33;20163;-81
2021/03/18 02:10:46;;;;;;;11.47;2.87;;;;;;;;;;4332254;33;20194;-82
2021/03/18 02:13:13;;;;;;;13.47;3.17;;;;;;;;;;4331602;33;20194;-82
2021/03/18 02:15:50;;;;;;;8.90;2.77;;;;;;;;;;4346193;33;20170;-81
2021/03/18 02:18:19;;;;;;;9.83;2.63;;;;;;;;;;4345606;33;20155;-82
2021/03/18 02:20:57;;;;;;;11.77;2.80;;;;;;;;;;4345340;33;20148;-80
2021/03/18 02:23:37;;;;;;;13.40;2.73;;;;;;;;;;4346136;33;20143;-80
2021/03/18 02:26:02;;;;;;;9.13;2.67;;;;;;;;;;4331427;33;20163;-82
2021/03/18 02:28:46;;;;;;;7.57;2.90;;;;;;;;;;4345538;33;20165;-81
2021/03/18 02:31:13;;;;;;;9.43;2.60;;;;;;;;;;4331994;33;20314;-81
2021/03/18 02:33:57;;;;;;;7.40;2.93;;;;;;;;;;4344913;33;20556;-82
2021/03/18 02:36:26;;;;;;;11.63;2.80;;;;;;;;;;4344810;33;20173;-81
2021/03/18 02:39:03;;;;;;;11.77;2.90;;;;;;;;;;4344772;33;20171;-81
2021/03/18 02:41:30;;;;;;;7.47;2.90;;;;;;;;;;4316706;33;20175;-81
2021/03/18 02:44:02;;;;;;;10.47;3.00;;;;;;;;;;4317253;33;20190;-82
2021/03/18 02:46:27;;;;;;;10.93;2.97;;;;;;;;;;4330097;33;20166;-82
2021/03/18 02:48:55;;;;;;;16.93;3.37;;;;;;;;;;4317425;33;20227;-80
2021/03/18 02:51:24;;;;;;;8.33;2.63;;;;;;;;;;4330853;33;20136;-81
2021/03/18 02:53:49;;;;;;;10.67;2.90;;;;;;;;;;4330025;33;20155;-81
2021/03/18 02:56:16;;;;;;;8.43;2.60;;;;;;;;;;4316674;33;20643;-81
2021/03/18 02:58:42;;;;;;;13.00;2.63;;;;;;;;;;4331403;33;20238;-80
2021/03/18 03:01:07;;;;;;;11.27;2.87;;;;;;;;;;4330269;33;20152;-80
2021/03/18 03:03:34;;;;;;;11.70;2.70;;;;;;;;;;4316831;33;20171;-81
2021/03/18 03:06:00;;;;;;;9.13;3.07;;;;;;;;;;4330613;33;20178;-81
2021/03/18 03:08:26;;;;;;;13.60;3.17;;;;;;;;;;4330042;33;20147;-81
2021/03/18 03:10:53;;;;;;;8.07;2.73;;;;;;;;;;4316611;33;20226;-82
2021/03/18 03:13:18;;;;;;;12.57;3.03;;;;;;;;;;4330692;33;20144;-81
2021/03/18 03:15:44;;;;;;;14.70;3.23;;;;;;;;;;4330999;33;20143;-81
2021/03/18 03:18:10;;;;;;;11.47;3.03;;;;;;;;;;4330282;33;20612;-81
2021/03/18 03:20:36;;;;;;;8.80;2.67;;;;;;;;;;4318318;33;20226;-80
2021/03/18 03:23:03;;;;;;;8.23;2.67;;;;;;;;;;4332129;33;20179;-81
2021/03/18 03:25:28;;;;;;;9.03;2.67;;;;;;;;;;4331684;33;20156;-80
2021/03/18 03:27:54;;;;;;;12.97;3.07;;;;;;;;;;4333155;33;20667;-82
2021/03/18 03:30:19;;;;;;;9.27;2.80;;;;;;;;;;4331596;33;20148;-81
2021/03/18 03:32:45;;;;;;;9.17;3.37;;;;;;;;;;4330148;33;20164;-82
2021/03/18 03:35:11;;;;;;;15.27;3.87;;;;;;;;;;4330449;33;20182;-82
2021/03/18 03:37:37;;;;;;;8.80;3.33;;;;;;;;;;4333263;33;20164;-82
2021/03/18 03:40:05;;;;;;;9.87;3.57;;;;;;;;;;4326590;33;20234;-81
2021/03/18 03:42:30;;;;;;;9.97;3.33;;;;;;;;;;4333588;33;20174;-80
2021/03/18 03:44:55;;;;;;;12.47;3.17;;;;;;;;;;4333448;33;20622;-80
2021/03/18 03:47:21;;;;;;;12.77;3.37;;;;;;;;;;4334070;33;20615;-81
2021/03/18 03:49:46;;;;;;;13.97;4.10;;;;;;;;;;4348068;33;20158;-80
2021/03/18 03:52:15;;;;;;;14.60;3.40;;;;;;;;;;4346745;33;20185;-80
2021/03/18 03:54:43;;;;;;;10.77;3.30;;;;;;;;;;4347048;33;20132;-81
2021/03/18 03:57:12;;;;;;;9.93;3.37;;;;;;;;;;4347186;33;20169;-81
2021/03/18 03:59:39;;;;;;;12.37;3.07;;;;;;;;;;4347982;33;20583;-82
2021/03/18 04:02:04;;;;;;;12.23;3.63;;;;;;;;;;4333169;33;20607;-82
2021/03/18 04:04:38;;;;;;;10.87;3.37;;;;;;;;;;4346782;33;20159;-81
2021/03/18 04:07:05;;;;;;;12.50;3.47;;;;;;;;;;4347517;33;20155;-81
2021/03/18 04:09:31;;;;;;;10.83;3.60;;;;;;;;;;4334055;33;20179;-81
2021/03/18 04:11:57;;;;;;;14.10;4.03;;;;;;;;;;4346773;33;20232;-81
2021/03/18 04:14:30;;;;;;;15.93;3.90;;;;;;;;;;4347893;33;20187;-80
2021/03/18 04:16:57;;;;;;;16.53;4.30;;;;;;;;;;4348647;33;20142;-81
2021/03/18 04:19:23;;;;;;;11.70;3.80;;;;;;;;;;4346903;33;20478;-80
2021/03/18 04:21:50;;;;;;;14.40;4.60;;;;;;;;;;4348089;33;20201;-81
2021/03/18 04:24:16;;;;;;;16.87;4.47;;;;;;;;;;4347151;33;20537;-81
2021/03/18 04:26:42;;;;;;;15.73;4.37;;;;;;;;;;4346271;33;20163;-81
2021/03/18 04:29:08;;;;;;;14.43;5.03;;;;;;;;;;4332921;33;20167;-80
2021/03/18 04:31:36;;;;;;;12.97;5.20;;;;;;;;;;4333236;33;20220;-80
2021/03/18 04:34:01;;;;;;;15.73;4.47;;;;;;;;;;4347352;33;20144;-81
2021/03/18 04:36:28;;;;;;;18.13;4.43;;;;;;;;;;4347125;33;20171;-80
2021/03/18 04:38:54;;;;;;;11.87;4.83;;;;;;;;;;4347093;33;20136;-81
2021/03/18 04:41:19;;;;;;;11.67;4.23;;;;;;;;;;4346035;33;20182;-80
2021/03/18 04:43:45;;;;;;;17.40;4.70;;;;;;;;;;4348396;33;20136;-80
2021/03/18 04:46:10;;;;;;;15.27;5.20;;;;;;;;;;4333303;33;20194;-80
2021/03/18 04:48:39;;;;;;;17.87;5.67;;;;;;;;;;4346977;33;20151;-80
2021/03/18 04:51:05;;;;;;;25.53;5.73;;;;;;;;;;4333993;33;20186;-81
2021/03/18 04:53:31;;;;;;;14.30;5.73;;;;;;;;;;4346325;33;20582;-81
2021/03/18 04:55:56;;;;;;;18.43;5.17;;;;;;;;;;4332596;33;20198;-82
2021/03/18 04:58:22;;;;;;;19.10;6.10;;;;;;;;;;4345981;33;20198;-80
2021/03/18 05:00:48;;;;;;;17.47;5.37;;;;;;;;;;4346371;33;20131;-81
2021/03/18 05:03:14;;;;;;;16.63;5.47;;;;;;;;;;4347323;33;20162;-79
2021/03/18 05:05:39;;;;;;;23.07;5.50;;;;;;;;;;4346625;33;20148;-81
2021/03/18 05:08:05;;;;;;;20.47;6.17;;;;;;;;;;4347061;33;20560;-80
2021/03/18 05:10:32;;;;;;;17.33;5.43;;;;;;;;;;4332818;33;20580;-79
2021/03/18 05:12:58;;;;;;;13.23;4.60;;;;;;;;;;4345833;33;20451;-80
2021/03/18 05:15:25;;;;;;;20.13;5.93;;;;;;;;;;4347322;33;20213;-80
2021/03/18 05:17:50;;;;;;;20.53;5.30;;;;;;;;;;4346237;33;20148;-80
2021/03/18 05:20:17;;;;;;;18.43;5.23;;;;;;;;;;4332565;33;20493;-81
2021/03/18 05:22:45;;;;;;;20.47;5.63;;;;;;;;;;4346417;33;20139;-80
2021/03/18 05:25:10;;;;;;;17.20;5.87;;;;;;;;;;4332702;33;20175;-81
2021/03/18 05:27:36;;;;;;;21.03;6.03;;;;;;;;;;4348011;33;20293;-81
2021/03/18 05:30:03;;;;;;;21.90;6.27;;;;;;;;;;4346510;33;20197;-80
2021/03/18 05:32:28;;;;;;;19.10;5.97;;;;;;;;;;4345727;33;20148;-80
2021/03/18 05:34:53;;;;;;;16.00;6.50;;;;;;;;;;4345812;33;20147;-79
2021/03/18 05:37:18;;;;;;;22.27;6.60;;;;;;;;;;4346395;33;20541;-80
2021/03/18 05:39:44;;;;;;;18.00;6.40;;;;;;;;;;4332341;33;20549;-80
2021/03/18 05:42:09;;;;;;;21.80;9.00;;;;;;;;;;4345506;33;20193;-78
2021/03/18 05:44:34;;;;;;;23.23;6.80;;;;;;;;;;4345576;33;20143;-81
2021/03/18 05:47:00;;;;;;;15.87;6.63;;;;;;;;;;4331888;33;20175;-78
2021/03/18 05:49:28;;;;;;;19.03;6.40;;;;;;;;;;4345220;33;20147;-78
2021/03/18 05:51:53;;;;;;;18.43;6.30;;;;;;;;;;4345910;33;20165;-80
2021/03/18 05:54:19;;;;;;;23.10;5.90;;;;;;;;;;4331987;33;20164;-81
2021/03/18 05:56:45;;;;;;;19.97;5.93;;;;;;;;;;4345815;33;20166;-82
2021/03/18 05:59:11;;;;;;;21.57;6.27;;;;;;;;;;4345446;33;20182;-80
2021/03/18 06:01:39;;;;;;;18.97;5.83;;;;;;;;;;4345806;33;20231;-82
2021/03/18 06:04:04;;;;;;;20.27;6.73;;;;;;;;;;4345916;33;20135;-82
2021/03/18 06:06:29;;;;;;;18.30;6.13;;;;;;;;;;4331701;33;20167;-82
2021/03/18 06:08:55;;;;;;;22.23;7.05;;;;;;;;;;4345123;33;20545;-81
2021/03/18 06:11:20;;;;;;;19.13;6.60;;;;;;;;;;4345780;33;20181;-81
2021/03/18 06:13:45;;;;;;;20.23;6.20;;;;;;;;;;4344916;33;20541;-79
2021/03/18 06:16:10;;;;;;;18.07;5.70;;;;;;;;;;4331650;33;20216;-83
2021/03/18 06:18:36;;;;;;;24.87;6.70;;;;;;;;;;4345933;33;20189;-82
2021/03/18 06:21:01;;;;;;;24.10;6.77;;;;;;;;;;4344884;33;20198;-80
2021/03/18 06:23:28;;;;;;;24.60;6.87;;;;;;;;;;4333116;33;20194;-83
2021/03/18 06:25:53;;;;;;;25.47;6.90;;;;;;;;;;4331448;33;20163;-80
2021/03/18 06:28:21;;;;;;;20.20;6.87;;;;;;;;;;4341847;33;20147;-79
2021/03/18 06:31:02;;;;;;;21.27;7.40;;;;;;;;;;4323764;33;20199;-82
2021/03/18 06:33:28;;;;;;;25.90;6.63;;;;;;;;;;4332896;33;20175;-83
2021/03/18 06:35:54;;;;;;;21.13;5.67;;;;;;;;;;4327448;33;20230;-78
2021/03/18 06:38:27;;;;;;;29.00;7.00;;;;;;;;;;4329924;33;20135;-80
2021/03/18 06:40:52;;;;;;;22.83;6.53;;;;;;;;;;4329567;33;20631;-83
2021/03/18 06:43:17;;;;;;;24.20;6.73;;;;;;;;;;4321967;33;20197;-80
2021/03/18 06:45:44;;;;;;;19.70;6.50;;;;;;;;;;4333645;33;20524;-81
2021/03/18 06:48:15;;;;;;;23.93;6.30;;;;;;;;;;4345855;33;20193;-79
2021/03/18 06:50:42;;;;;;;24.30;6.93;;;;;;;;;;4343536;33;20614;-79
2021/03/18 06:53:17;;;;;;;18.57;6.70;;;;;;;;;;4344493;33;20160;-82
2021/03/18 06:55:42;;;;;;;25.63;6.40;;;;;;;;;;4344417;33;20189;-82
2021/03/18 06:58:15;;;;;;;20.37;5.90;;;;;;;;;;4344989;33;20151;-79
2021/03/18 07:00:40;;;;;;;24.17;6.90;;;;;;;;;;4343142;33;20194;-81
2021/03/18 07:03:08;;;;;;;18.30;6.30;;;;;;;;;;4346297;33;20151;-82
2021/03/18 07:05:37;;;;;;;23.33;7.33;;;;;;;;;;4344493;33;20198;-81
2021/03/18 07:08:02;;;;;;;18.97;6.20;;;;;;;;;;4338908;33;20182;-81
2021/03/18 07:10:31;;;;;;;23.57;5.97;;;;;;;;;;4340767;33;20209;-82
2021/03/18 07:13:13;;;;;;;26.83;7.77;;;;;;;;;;4344168;33;20560;-82
2021/03/18 07:15:38;;;;;;;19.23;5.87;;;;;;;;;;4345298;33;20287;-83
2021/03/18 07:18:03;;;;;;;22.70;5.90;;;;;;;;;;4328170;33;20167;-82
2021/03/18 07:20:29;;;;;;;23.10;6.40;;;;;;;;;;4330633;33;20176;-79
2021/03/18 07:22:55;;;;;;;26.23;5.50;;;;;;;;;;4331981;33;20181;-81
2021/03/18 07:25:23;;;;;;;22.00;6.30;;;;;;;;;;4331003;33;20350;-80
2021/03/18 07:27:50;;;;;;;18.77;6.40;;;;;;;;;;4331528;33;20185;-82
2021/03/18 07:30:42;;;;;;;25.53;7.10;;;;;;;;;;4330978;33;20168;-79
2021/03/18 07:33:07;;;;;;;27.70;5.97;;;;;;;;;;4330590;33;20152;-80
2021/03/18 07:35:33;;;;;;;14.83;5.50;;;;;;;;;;4319162;33;20194;-80
2021/03/18 07:38:01;;;;;;;28.40;5.97;;;;;;;;;;4331728;33;20454;-81
2021/03/18 07:40:28;;;;;;;23.87;7.13;;;;;;;;;;4318409;33;20330;-82
2021/03/18 07:42:54;;;;;;;24.23;6.10;;;;;;;;;;4330843;33;20190;-76
2021/03/18 07:45:20;;;;;;;25.80;6.07;;;;;;;;;;4332086;33;20211;-81
2021/03/18 07:47:46;;;;;;;20.23;5.90;;;;;;;;;;4331421;33;20624;-77
2021/03/18 07:50:12;;;;;;;26.13;6.50;;;;;;;;;;4319137;33;20222;-81
2021/03/18 07:52:40;;;;;;;25.10;6.43;;;;;;;;;;4332005;33;20275;-81
2021/03/18 07:55:06;;;;;;;26.20;6.27;;;;;;;;;;4332934;33;20202;-83
2021/03/18 07:57:39;;;;;;;25.23;6.47;;;;;;;;;;4346629;33;20179;-81
2021/03/18 08:00:09;;;;;;;19.70;5.73;;;;;;;;;;4346856;33;20139;-82
2021/03/18 08:02:37;;;;;;;22.50;6.20;;;;;;;;;;4347443;33;20139;-80
2021/03/18 08:05:03;;;;;;;17.80;5.77;;;;;;;;;;4347933;33;20139;-77
2021/03/18 08:07:45;;;;;;;23.50;6.30;;;;;;;;;;4345776;33;20193;-74
2021/03/18 08:10:14;;;;;;;18.83;5.63;;;;;;;;;;4347056;33;20488;-78
2021/03/18 08:12:50;;;;;;;25.87;6.43;;;;;;;;;;4346072;33;20199;-76
2021/03/18 08:15:29;;;;;;;25.97;6.40;;;;;;;;;;4346178;33;20159;-77
2021/03/18 08:17:56;;;;;;;16.73;4.77;;;;;;;;;;4344968;33;20155;-76
2021/03/18 08:20:37;;;;;;;19.20;5.37;;;;;;;;;;4345273;33;20191;-78
2021/03/18 08:23:24;;;;;;;18.10;5.10;;;;;;;;;;4345960;33;20615;-82
2021/03/18 08:25:49;;;;;;;22.43;5.47;;;;;;;;;;4342458;33;20175;-75
2021/03/18 08:28:34;;;;;;;25.07;4.97;;;;;;;;;;4340079;33;20190;-76
2021/03/18 08:31:00;;;;;;;16.27;5.27;;;;;;;;;;4344792;33;20186;-79
2021/03/18 08:33:33;;;;;;;20.57;5.37;;;;;;;;;;4344425;33;20205;-75
2021/03/18 08:36:17;;;;;;;16.70;4.73;;;;;;;;;;4345179;33;20238;-77
2021/03/18 08:38:42;;;;;;;23.17;3.40;;;;;;;;;;4344564;33;20498;-77
2021/03/18 08:41:07;;;;;;;17.03;3.93;;;;;;;;;;4345168;33;20214;-76
2021/03/18 08:43:52;;;;;;;19.53;3.40;;;;;;;;;;4344948;33;20217;-74
2021/03/18 08:46:37;;;;;;;18.87;3.67;;;;;;;;;;4345458;33;20194;-78
2021/03/18 08:49:21;;;;;;;22.57;3.70;;;;;;;;;;4332175;33;20194;-72
2021/03/18 08:51:49;;;;;;;19.77;4.63;;;;;;;;;;4344166;33;20171;-72
2021/03/18 08:54:33;;;;;;;15.57;3.43;;;;;;;;;;4332437;33;20194;-72
2021/03/18 08:56:58;;;;;;;19.20;3.80;;;;;;;;;;4346082;33;20135;-70
2021/03/18 08:59:24;;;;;;;20.03;3.73;;;;;;;;;;4345812;33;20189;-75
2021/03/18 09:01:49;;;;;;;15.07;3.43;;;;;;;;;;4344767;33;20178;-79
2021/03/18 09:04:14;;;;;;;16.50;3.57;;;;;;;;;;4345932;33;20163;-78
2021/03/18 09:06:45;;;;;;;16.03;4.13;;;;;;;;;;4344984;33;20163;-78
2021/03/18 09:09:17;;;;;;;19.13;4.03;;;;;;;;;;4346154;33;20550;-77
2021/03/18 09:11:42;;;;;;;21.60;4.63;;;;;;;;;;4344653;33;20178;-77
2021/03/18 09:14:14;;;;;;;16.60;3.20;;;;;;;;;;4346377;33;20250;-76
2021/03/18 09:16:39;;;;;;;16.13;3.97;;;;;;;;;;4346348;33;20178;-72
2021/03/18 09:19:05;;;;;;;20.57;4.13;;;;;;;;;;4345204;33;20564;-74
2021/03/18 09:21:41;;;;;;;10.67;3.60;;;;;;;;;;4346490;33;20166;-77
2021/03/18 09:24:07;;;;;;;19.47;3.43;;;;;;;;;;4345149;33;20221;-71
2021/03/18 09:26:32;;;;;;;18.23;3.23;;;;;;;;;;4345017;33;20219;-73
2021/03/18 09:28:58;;;;;;;14.33;3.50;;;;;;;;;;4344451;33;20163;-71
2021/03/18 09:31:24;;;;;;;17.97;4.20;;;;;;;;;;4345259;33;20222;-73
2021/03/18 09:33:52;;;;;;;19.00;3.97;;;;;;;;;;4345786;33;20549;-72
2021/03/18 09:36:17;;;;;;;16.37;3.60;;;;;;;;;;4345014;33;20214;-70
2021/03/18 09:38:53;;;;;;;14.57;3.50;;;;;;;;;;4344411;33;20190;-70
2021/03/18 09:41:23;;;;;;;16.47;3.90;;;;;;;;;;4345304;33;20170;-72
2021/03/18 09:43:48;;;;;;;18.93;3.60;;;;;;;;;;4343880;33;20227;-71
2021/03/18 09:46:13;;;;;;;14.47;3.33;;;;;;;;;;4343763;33;20176;-71
2021/03/18 09:48:39;;;;;;;12.90;2.83;;;;;;;;;;4346521;33;20505;-71
2021/03/18 09:51:12;;;;;;;12.13;2.80;;;;;;;;;;4345676;33;20135;-74
2021/03/18 09:53:38;;;;;;;10.80;2.60;;;;;;;;;;4343762;33;20582;-71
2021/03/18 09:56:14;;;;;;;12.00;3.00;;;;;;;;;;4346853;33;20143;-73
2021/03/18 09:58:40;;;;;;;9.93;2.90;;;;;;;;;;4340223;33;20189;-72
2021/03/18 10:01:12;;;;;;;11.03;2.90;;;;;;;;;;4345499;33;20541;-74
2021/03/18 10:03:38;;;;;;;13.33;2.87;;;;;;;;;;4344243;33;20175;-73
2021/03/18 10:06:07;;;;;;;13.20;2.90;;;;;;;;;;4345374;33;20190;-71
2021/03/18 10:08:32;;;;;;;17.40;3.40;;;;;;;;;;4344987;33;20175;-73
2021/03/18 10:11:09;;;;;;;12.17;2.97;;;;;;;;;;4343799;33;20631;-70
2021/03/18 10:13:34;;;;;;;9.03;2.40;;;;;;;;;;4345598;33;20193;-68
2021/03/18 10:16:00;;;;;;;9.87;2.40;;;;;;;;;;4344939;33;20147;-69
2021/03/18 10:18:25;;;;;;;15.57;2.97;;;;;;;;;;4343489;33;20355;-68
2021/03/18 10:20:50;;;;;;;12.73;2.13;;;;;;;;;;4344910;33;20193;-73
2021/03/18 10:23:16;;;;;;;9.90;1.97;;;;;;;;;;4343618;33;20168;-72
2021/03/18 10:25:41;;;;;;;8.13;2.03;;;;;;;;;;4343734;33;20171;-72
2021/03/18 10:28:11;;;;;;;7.83;1.93;;;;;;;;;;4344861;33;20158;-72
2021/03/18 10:30:43;;;;;;;10.77;2.60;;;;;;;;;;4344747;33;20163;-71
2021/03/18 10:33:15;;;;;;;15.57;2.57;;;;;;;;;;4331807;33;20176;-72
2021/03/18 10:35:57;;;;;;;13.57;2.90;;;;;;;;;;4345317;33;20139;-73
2021/03/18 10:38:43;;;;;;;14.90;3.30;;;;;;;;;;4344103;33;20194;-71
2021/03/18 10:41:10;;;;;;;13.73;3.90;;;;;;;;;;4343750;33;20171;-73
2021/03/18 10:43:42;;;;;;;14.50;4.73;;;;;;;;;;4343296;33;20167;-73
2021/03/18 10:46:09;;;;;;;14.40;4.25;;;;;;;;;;4344310;33;20163;-73
2021/03/18 10:48:36;;;;;;;17.10;4.65;;;;;;;;;;4346466;33;20174;-72
2021/03/18 10:51:04;;;;;;;18.70;5.25;;;;;;;;;;4346594;33;20172;-71
2021/03/18 10:53:32;;;;;;;10.73;3.60;;;;;;;;;;4346923;33;20163;-74
2021/03/18 10:55:58;;;;;;;11.03;3.60;;;;;;;;;;4347959;33;20198;-74
2021/03/18 10:58:24;;;;;;;8.75;3.30;;;;;;;;;;4346804;33;20217;-72
2021/03/18 11:01:10;;;;;;;6.63;2.73;;;;;;;;;;4334812;33;20477;-70
2021/03/18 11:03:36;;;;;;;8.43;2.87;;;;;;;;;;4347242;33;20167;-73
2021/03/18 11:06:12;;;;;;;7.90;3.20;;;;;;;;;;4346545;33;20164;-73
2021/03/18 11:08:40;;;;;;;9.77;3.53;;;;;;;;;;4334429;33;20163;-74
2021/03/18 11:11:11;;;;;;;11.85;4.00;;;;;;;;;;4347696;33;20135;-72
2021/03/18 11:13:36;;;;;;;10.93;2.90;;;;;;;;;;4348425;33;20140;-70
2021/03/18 11:16:03;;;;;;;8.30;3.20;;;;;;;;;;4347720;33;20274;-73
2021/03/18 11:18:28;;;;;;;8.07;2.80;;;;;;;;;;4346209;33;20167;-71
2021/03/18 11:20:53;;;;;;;9.67;3.47;;;;;;;;;;4348419;33;20475;-74
2021/03/18 11:23:24;;;;;;;6.23;3.03;;;;;;;;;;4346680;33;20210;-73
2021/03/18 11:25:54;;;;;;;8.80;3.30;;;;;;;;;;4347683;33;20202;-76
2021/03/18 11:28:19;;;;;;;10.07;3.20;;;;;;;;;;4348172;33;20154;-75
2021/03/18 11:30:44;;;;;;;5.90;3.13;;;;;;;;;;4345950;33;20205;-73
2021/03/18 11:33:09;;;;;;;9.23;3.13;;;;;;;;;;4347817;33;20136;-74
2021/03/18 11:35:35;;;;;;;8.35;3.25;;;;;;;;;;4345706;33;20222;-75
2021/03/18 11:38:00;;;;;;;7.83;3.60;;;;;;;;;;4345846;33;20723;-73
2021/03/18 11:40:25;;;;;;;6.27;3.13;;;;;;;;;;4346039;33;20179;-74
2021/03/18 11:42:51;;;;;;;6.20;2.80;;;;;;;;;;4345938;33;20164;-73
2021/03/18 11:45:16;;;;;;;5.47;2.75;;;;;;;;;;4345454;33;20274;-74
2021/03/18 11:47:42;;;;;;;6.37;2.62;;;;;;;;;;4333165;33;20225;-74
2021/03/18 11:50:08;;;;;;;6.18;2.97;;;;;;;;;;4349005;33;20174;-73
2021/03/18 11:52:33;;;;;;;6.53;2.25;;;;;;;;;;4347834;33;20206;-71
2021/03/18 11:54:59;;;;;;;5.18;2.67;;;;;;;;;;4346069;33;20167;-74
2021/03/18 11:57:24;;;;;;;6.62;2.45;;;;;;;;;;4345099;33;20163;-73
2021/03/18 11:59:49;;;;;;;5.22;3.05;;;;;;;;;;4345957;33;20497;-75
2021/03/18 12:02:15;;;;;;;5.53;3.22;;;;;;;;;;4333490;33;20233;-74
2021/03/18 12:04:40;;;;;;;5.00;3.08;;;;;;;;;;4345401;33;20234;-73
2021/03/18 12:07:05;;;;;;;5.03;2.97;;;;;;;;;;4346936;33;20178;-73
2021/03/18 12:09:31;;;;;;;7.85;3.60;;;;;;;;;;4345698;33;20395;-75
2021/03/18 12:11:59;;;;;;;7.30;3.50;;;;;;;;;;4345078;33;20242;-73
2021/03/18 12:14:26;;;;;;;5.90;3.60;;;;;;;;;;4345270;33;20661;-74
2021/03/18 12:16:52;;;;;;;9.65;3.90;;;;;;;;;;4333181;33;20198;-75
2021/03/18 12:19:17;;;;;;;6.30;4.03;;;;;;;;;;4347997;33;20161;-72
2021/03/18 12:21:42;;;;;;;8.35;4.32;;;;;;;;;;4333252;33;20600;-72
2021/03/18 12:24:07;;;;;;;8.60;4.18;;;;;;;;;;4333164;33;20163;-73
2021/03/18 12:26:33;;;;;;;7.37;4.53;;;;;;;;;;4346971;33;20151;-73
2021/03/18 12:28:58;;;;;;;7.37;4.07;;;;;;;;;;4333187;33;20185;-71
2021/03/18 12:31:23;;;;;;;9.37;4.20;;;;;;;;;;4347109;33;20139;-74
2021/03/18 12:33:49;;;;;;;11.03;4.73;;;;;;;;;;4345099;33;20187;-74
2021/03/18 12:36:14;;;;;;;6.23;3.40;;;;;;;;;;4346830;33;20289;-71
2021/03/18 12:38:42;;;;;;;9.63;4.40;;;;;;;;;;4346419;33;20605;-75
2021/03/18 12:41:07;;;;;;;9.90;3.20;;;;;;;;;;4344774;33;20168;-74
2021/03/18 12:43:32;;;;;;;9.40;3.70;;;;;;;;;;4345089;33;20190;-75
2021/03/18 12:45:58;;;;;;;13.67;4.90;;;;;;;;;;4344951;33;20179;-73
2021/03/18 12:48:23;;;;;;;13.00;4.97;;;;;;;;;;4345357;33;20163;-75
2021/03/18 12:50:48;;;;;;;11.57;5.70;;;;;;;;;;4332956;33;20164;-72
2021/03/18 12:53:14;;;;;;;13.00;5.90;;;;;;;;;;4345282;33;20140;-74
2021/03/18 12:55:39;;;;;;;10.93;5.03;;;;;;;;;;4344689;33;20197;-74
2021/03/18 12:58:04;;;;;;;9.93;4.27;;;;;;;;;;4332892;33;20164;-74
2021/03/18 13:00:31;;;;;;;9.70;4.20;;;;;;;;;;4344841;33;20201;-75
2021/03/18 13:02:57;;;;;;;12.07;4.13;;;;;;;;;;4332488;33;20217;-75
2021/03/18 13:05:22;;;;;;;12.30;3.70;;;;;;;;;;4332180;33;20198;-73
2021/03/18 13:07:48;;;;;;;8.93;3.13;;;;;;;;;;4331739;33;20167;-71
2021/03/18 13:10:14;;;;;;;10.23;2.70;;;;;;;;;;4344265;33;20190;-73
2021/03/18 13:12:39;;;;;;;9.87;3.43;;;;;;;;;;4332255;33;20670;-73
2021/03/18 13:15:05;;;;;;;7.93;2.43;;;;;;;;;;4332723;33;20170;-73
2021/03/18 13:17:31;;;;;;;9.33;2.30;;;;;;;;;;4345111;33;20164;-71
2021/03/18 13:19:56;;;;;;;5.82;2.60;;;;;;;;;;4332060;33;20217;-69
2021/03/18 13:22:21;;;;;;;8.20;2.65;;;;;;;;;;4344858;33;20538;-72
2021/03/18 13:24:46;;;;;;;9.93;2.53;;;;;;;;;;4345704;33;20135;-75
2021/03/18 13:27:11;;;;;;;10.87;2.73;;;;;;;;;;4332063;33;20256;-74
2021/03/18 13:29:37;;;;;;;13.17;3.10;;;;;;;;;;4332087;33;20172;-69
2021/03/18 13:32:02;;;;;;;3.57;1.37;;;;;;;;;;4345620;33;20143;-70
2021/03/18 13:34:27;;;;;;;4.80;1.40;;;;;;;;;;4344536;33;20163;-74
2021/03/18 13:36:53;;;;;;;4.20;1.77;;;;;;;;;;4345517;33;20173;-74
2021/03/18 13:39:18;;;;;;;3.80;2.17;;;;;;;;;;4343850;33;20209;-74
2021/03/18 13:41:43;;;;;;;5.67;2.93;;;;;;;;;;4345203;33;20584;-73
2021/03/18 13:44:08;;;;;;;4.53;2.40;;;;;;;;;;4345412;33;20213;-73
2021/03/18 13:46:34;;;;;;;7.50;2.87;;;;;;;;;;4343540;33;20186;-73
2021/03/18 13:48:59;;;;;;;4.43;2.83;;;;;;;;;;4332226;33;20250;-73
2021/03/18 13:51:25;;;;;;;5.33;3.10;;;;;;;;;;4344984;33;20166;-72
2021/03/18 13:53:50;;;;;;;5.83;3.23;;;;;;;;;;4332201;33;20576;-70
2021/03/18 13:56:15;;;;;;;8.27;3.20;;;;;;;;;;4344516;33;20171;-74
2021/03/18 13:58:41;;;;;;;7.27;2.77;;;;;;;;;;4343706;33;20479;-75
2021/03/18 14:01:06;;;;;;;7.53;2.63;;;;;;;;;;4344633;33;20214;-74
2021/03/18 14:03:31;;;;;;;7.80;2.60;;;;;;;;;;4344038;33;20198;-74
2021/03/18 14:05:57;;;;;;;10.20;3.17;;;;;;;;;;4343811;33;20171;-73
2021/03/18 14:08:22;;;;;;;9.20;2.40;;;;;;;;;;4344114;33;20207;-72
2021/03/18 14:10:47;;;;;;;5.82;2.05;;;;;;;;;;4345163;33;20489;-74
2021/03/18 14:13:13;;;;;;;6.35;1.67;;;;;;;;;;4344856;33;20649;-72
2021/03/18 14:15:39;;;;;;;7.72;2.00;;;;;;;;;;4343851;33;20163;-73
2021/03/18 14:18:05;;;;;;;8.45;1.95;;;;;;;;;;4331747;33;20251;-72
2021/03/18 14:20:31;;;;;;;8.55;2.30;;;;;;;;;;4345148;33;20132;-72
2021/03/18 14:22:57;;;;;;;10.90;2.50;;;;;;;;;;4331245;33;20166;-73
2021/03/18 14:25:23;;;;;;;4.90;2.03;;;;;;;;;;4343292;33;20214;-73
2021/03/18 14:27:48;;;;;;;8.52;2.65;;;;;;;;;;4344787;33;20170;-71
2021/03/18 14:30:14;;;;;;;9.03;2.90;;;;;;;;;;4343498;33;20175;-73
2021/03/18 14:32:40;;;;;;;11.70;2.93;;;;;;;;;;4343161;33;20155;-73
2021/03/18 14:35:06;;;;;;;8.70;3.60;;;;;;;;;;4344982;33;20166;-74